Time;durP1;ratioP1;P1;durP2;ratioP2;P2;SDS_P1;SDS_P2;PMS_P1;PMS_P2;Temp;Humidity;BMP_temperature;BMP_pressure;BME280_temperature;BME280_humidity;BME280_pressure;Samples;Min_cycle;Max_cycle;Signal;HPM_P1;HPM_P2
2022/04/08 00:00:18;;;;;;;;;;;;;;;;;;1282699;23;1664;-27
2022/04/08 00:00:57;;;;;;;;;;;;;;;;;;1283140;23;917;-26
2022/04/08 00:01:27;;;;;;;;;;;;;;;;;;1282358;23;946;-26
2022/04/08 00:01:58;;;;;;;;;;;;;;;;;;1282864;23;913;-26
2022/04/08 00:02:36;;;;;;;;;;;;;;;;;;1283080;23;789;-27
2022/04/08 00:03:06;;;;;;;;;;;;;;;;;;1282698;23;995;-27
2022/04/08 00:03:36;;;;;;;;;;;;;;;;;;1283107;23;1357;-27
2022/04/08 00:04:07;;;;;;;;;;;;;;;;;;1283140;23;984;-27
2022/04/08 00:04:37;;;;;;;;;;;;;;;;;;1282664;23;932;-26
2022/04/08 00:05:14;;;;;;;;;;;;;;;;;;1283408;23;908;-27
2022/04/08 00:05:44;;;;;;;;;;;;;;;;;;1282744;23;897;-27
2022/04/08 00:06:15;;;;;;;;;;;;;;;;;;1282989;23;884;-26
2022/04/08 00:06:46;;;;;;;;;;;;;;;;;;1283119;23;939;-27
2022/04/08 00:07:16;;;;;;;;;;;;;;;;;;1282967;23;793;-27
2022/04/08 00:07:53;;;;;;;;;;;;;;;;;;1282991;23;785;-27
2022/04/08 00:08:23;;;;;;;;;;;;;;;;;;1282350;23;904;-27
2022/04/08 00:08:54;;;;;;;;;;;;;;;;;;1282930;23;979;-27
2022/04/08 00:09:24;;;;;;;;;;;;;;;;;;1282997;23;907;-27
2022/04/08 00:09:55;;;;;;;;;;;;;;;;;;1282999;23;765;-27
2022/04/08 00:10:32;;;;;;;;;;;;;;;;;;1283265;23;872;-26
2022/04/08 00:11:03;;;;;;;;;;;;;;;;;;1282800;23;976;-27
2022/04/08 00:11:33;;;;;;;;;;;;;;;;;;1283099;23;929;-27
2022/04/08 00:12:03;;;;;;;;;;;;;;;;;;1282718;23;1908;-27
2022/04/08 00:12:34;;;;;;;;;;;;;;;;;;1283053;23;837;-27
2022/04/08 00:13:10;;;;;;;;;;;;;;;;;;1283121;23;940;-27
2022/04/08 00:13:41;;;;;;;;;;;;;;;;;;1282416;23;1016;-27
2022/04/08 00:14:11;;;;;;;;;;;;;;;;;;1283104;23;782;-26
2022/04/08 00:14:48;;;;;;;;;;;;;;;;;;1283104;23;1038;-27
2022/04/08 00:15:18;;;;;;;;;;;;;;;;;;1282846;23;881;-27
2022/04/08 00:15:49;;;;;;;;;;;;;;;;;;1282811;23;1163;-27
2022/04/08 00:16:19;;;;;;;;;;;;;;;;;;1282479;23;983;-27
2022/04/08 00:16:50;;;;;;;;;;;;;;;;;;1283194;23;797;-26
2022/04/08 00:17:26;;;;;;;;;;;;;;;;;;1283133;23;1037;-27
2022/04/08 00:18:07;;;;;;;;;;;;;;;;;;1282619;23;943;-27
2022/04/08 00:18:39;;;;;;;;;;;;;;;;;;1283026;23;901;-27
2022/04/08 00:19:09;;;;;;;;;;;;;;;;;;1282907;23;1063;-27
2022/04/08 00:19:40;;;;;;;;;;;;;;;;;;1282928;23;798;-27
2022/04/08 00:20:16;;;;;;;;;;;;;;;;;;1283064;23;1078;-27
2022/04/08 00:20:47;;;;;;;;;;;;;;;;;;1282598;23;993;-27
2022/04/08 00:21:17;;;;;;;;;;;;;;;;;;1283046;23;1319;-26
2022/04/08 00:21:48;;;;;;;;;;;;;;;;;;1282881;23;961;-27
2022/04/08 00:22:20;;;;;;;;;;;;;;;;;;1282829;23;1680;-27
2022/04/08 00:22:58;;;;;;;;;;;;;;;;;;1283486;23;936;-27
2022/04/08 00:23:28;;;;;;;;;;;;;;;;;;1282363;23;1012;-26
2022/04/08 00:23:59;;;;;;;;;;;;;;;;;;1282883;23;881;-27
2022/04/08 00:24:29;;;;;;;;;;;;;;;;;;1282698;23;1099;-27
2022/04/08 00:24:59;;;;;;;;;;;;;;;;;;1283089;23;812;-27
2022/04/08 00:25:36;;;;;;;;;;;;;;;;;;1283127;23;896;-27
2022/04/08 00:26:06;;;;;;;;;;;;;;;;;;1282913;23;973;-27
2022/04/08 00:26:37;;;;;;;;;;;;;;;;;;1283185;23;893;-27
2022/04/08 00:27:14;;;;;;;;;;;;;;;;;;1276392;23;1442;-27
2022/04/08 00:27:44;;;;;;;;;;;;;;;;;;1270065;23;1290;-27
2022/04/08 00:28:15;;;;;;;;;;;;;;;;;;1270461;23;829;-27
2022/04/08 00:28:45;;;;;;;;;;;;;;;;;;1269931;23;1045;-27
2022/04/08 00:29:16;;;;;;;;;;;;;;;;;;1270394;23;1612;-27
2022/04/08 00:29:53;;;;;;;;;;;;;;;;;;1276377;23;1052;-27
2022/04/08 00:30:23;;;;;;;;;;;;;;;;;;1276137;23;734;-27
2022/04/08 00:30:54;;;;;;;;;;;;;;;;;;1277302;23;1130;-27
2022/04/08 00:31:24;;;;;;;;;;;;;;;;;;1282454;23;828;-27
2022/04/08 00:31:57;;;;;;;;;;;;;;;;;;1283310;23;1909;-27
2022/04/08 00:32:34;;;;;;;;;;;;;;;;;;1283184;23;979;-27
2022/04/08 00:33:04;;;;;;;;;;;;;;;;;;1282698;23;1099;-27
2022/04/08 00:33:35;;;;;;;;;;;;;;;;;;1283142;23;1116;-27
2022/04/08 00:34:05;;;;;;;;;;;;;;;;;;1282838;23;830;-27
2022/04/08 00:34:35;;;;;;;;;;;;;;;;;;1283056;23;892;-26
2022/04/08 00:35:12;;;;;;;;;;;;;;;;;;1282837;23;956;-27
2022/04/08 00:35:42;;;;;;;;;;;;;;;;;;1282862;23;1188;-26
2022/04/08 00:36:13;;;;;;;;;;;;;;;;;;1283096;23;1063;-27
2022/04/08 00:36:43;;;;;;;;;;;;;;;;;;1282863;23;944;-27
2022/04/08 00:37:13;;;;;;;;;;;;;;;;;;1283084;23;1239;-27
2022/04/08 00:37:51;;;;;;;;;;;;;;;;;;1283133;23;896;-26
2022/04/08 00:38:21;;;;;;;;;;;;;;;;;;1282262;23;967;-27
2022/04/08 00:38:51;;;;;;;;;;;;;;;;;;1283173;23;920;-26
2022/04/08 00:39:22;;;;;;;;;;;;;;;;;;1282586;23;988;-27
2022/04/08 00:39:52;;;;;;;;;;;;;;;;;;1283373;23;885;-26
2022/04/08 00:40:29;;;;;;;;;;;;;;;;;;1282591;23;931;-26
2022/04/08 00:41:00;;;;;;;;;;;;;;;;;;1282820;23;948;-27
2022/04/08 00:41:37;;;;;;;;;;;;;;;;;;1282821;23;970;-26
2022/04/08 00:42:14;;;;;;;;;;;;;;;;;;1276574;23;1007;-27
2022/04/08 00:42:51;;;;;;;;;;;;;;;;;;1276703;23;872;-26
2022/04/08 00:43:35;;;;;;;;;;;;;;;;;;1276836;23;836;-27
2022/04/08 00:44:06;;;;;;;;;;;;;;;;;;1276964;23;1037;-26
2022/04/08 00:44:36;;;;;;;;;;;;;;;;;;1276539;23;1130;-26
2022/04/08 00:45:07;;;;;;;;;;;;;;;;;;1276856;23;1042;-27
2022/04/08 00:45:37;;;;;;;;;;;;;;;;;;1275670;23;1039;-26
2022/04/08 00:46:14;;;;;;;;;;;;;;;;;;1276900;23;908;-26
2022/04/08 00:46:44;;;;;;;;;;;;;;;;;;1276733;23;991;-27
2022/04/08 00:47:15;;;;;;;;;;;;;;;;;;1276153;23;936;-26
2022/04/08 00:47:45;;;;;;;;;;;;;;;;;;1276744;23;962;-26
2022/04/08 00:48:15;;;;;;;;;;;;;;;;;;1276416;23;1047;-27
2022/04/08 00:48:52;;;;;;;;;;;;;;;;;;1276997;23;908;-27
2022/04/08 00:49:23;;;;;;;;;;;;;;;;;;1276818;23;1025;-26
2022/04/08 00:49:53;;;;;;;;;;;;;;;;;;1276621;23;920;-26
2022/04/08 00:50:23;;;;;;;;;;;;;;;;;;1276904;23;978;-26
2022/04/08 00:50:54;;;;;;;;;;;;;;;;;;1276158;23;1133;-27
2022/04/08 00:51:32;;;;;;;;;;;;;;;;;;1276686;23;889;-26
2022/04/08 00:52:03;;;;;;;;;;;;;;;;;;1276747;23;1878;-26
2022/04/08 00:52:34;;;;;;;;;;;;;;;;;;1276677;23;808;-27
2022/04/08 00:53:05;;;;;;;;;;;;;;;;;;1276473;23;942;-27
2022/04/08 00:53:36;;;;;;;;;;;;;;;;;;1276553;23;1231;-26
2022/04/08 00:54:13;;;;;;;;;;;;;;;;;;1276838;23;885;-26
2022/04/08 00:54:44;;;;;;;;;;;;;;;;;;1276774;23;901;-27
2022/04/08 00:55:14;;;;;;;;;;;;;;;;;;1276816;23;888;-26
2022/04/08 00:55:45;;;;;;;;;;;;;;;;;;1276761;23;925;-26
2022/04/08 00:56:21;;;;;;;;;;;;;;;;;;1282062;23;885;-27
2022/04/08 00:56:52;;;;;;;;;;;;;;;;;;1283281;23;817;-26
2022/04/08 00:57:23;;;;;;;;;;;;;;;;;;1282894;23;1039;-26
2022/04/08 00:57:53;;;;;;;;;;;;;;;;;;1283106;23;844;-27
2022/04/08 00:58:24;;;;;;;;;;;;;;;;;;1282935;23;957;-27
2022/04/08 00:59:01;;;;;;;;;;;;;;;;;;1282840;23;1070;-27
2022/04/08 00:59:32;;;;;;;;;;;;;;;;;;1283152;23;801;-26
2022/04/08 01:00:09;;;;;;;;;;;;;;;;;;1283132;23;949;-26
2022/04/08 01:00:41;;;;;;;;;;;;;;;;;;1282581;23;793;-27
2022/04/08 01:01:12;;;;;;;;;;;;;;;;;;1283168;23;889;-26
2022/04/08 01:01:42;;;;;;;;;;;;;;;;;;1282355;23;942;-27
2022/04/08 01:02:13;;;;;;;;;;;;;;;;;;1282994;23;1023;-26
2022/04/08 01:02:50;;;;;;;;;;;;;;;;;;1283087;23;1084;-27
2022/04/08 01:03:20;;;;;;;;;;;;;;;;;;1282773;23;869;-27
2022/04/08 01:03:54;;;;;;;;;;;;;;;;;;1283206;23;1666;-27
2022/04/08 01:04:27;;;;;;;;;;;;;;;;;;1282925;23;865;-28
2022/04/08 01:04:57;;;;;;;;;;;;;;;;;;1282721;23;880;-26
2022/04/08 01:05:34;;;;;;;;;;;;;;;;;;1283155;23;981;-27
2022/04/08 01:06:06;;;;;;;;;;;;;;;;;;1282665;23;925;-27
2022/04/08 01:06:36;;;;;;;;;;;;;;;;;;1282998;23;813;-26
2022/04/08 01:07:07;;;;;;;;;;;;;;;;;;1282256;23;893;-26
2022/04/08 01:07:37;;;;;;;;;;;;;;;;;;1282711;23;928;-27
2022/04/08 01:08:14;;;;;;;;;;;;;;;;;;1283109;23;1043;-26
2022/04/08 01:08:46;;;;;;;;;;;;;;;;;;1282753;23;841;-27
2022/04/08 01:09:16;;;;;;;;;;;;;;;;;;1283122;23;793;-26
2022/04/08 01:09:47;;;;;;;;;;;;;;;;;;1282936;23;1100;-26
2022/04/08 01:10:17;;;;;;;;;;;;;;;;;;1282958;23;805;-26
2022/04/08 01:10:55;;;;;;;;;;;;;;;;;;1282887;23;979;-27
2022/04/08 01:11:25;;;;;;;;;;;;;;;;;;1282644;23;947;-27
2022/04/08 01:11:55;;;;;;;;;;;;;;;;;;1282989;23;1940;-27
2022/04/08 01:12:26;;;;;;;;;;;;;;;;;;1282500;23;956;-27
2022/04/08 01:12:56;;;;;;;;;;;;;;;;;;1282950;23;876;-26
2022/04/08 01:13:33;;;;;;;;;;;;;;;;;;1282690;23;1056;-27
2022/04/08 01:14:11;;;;;;;;;;;;;;;;;;1282794;23;908;-27
2022/04/08 01:14:41;;;;;;;;;;;;;;;;;;1283205;23;801;-26
2022/04/08 01:15:11;;;;;;;;;;;;;;;;;;1282311;23;773;-27
2022/04/08 01:15:42;;;;;;;;;;;;;;;;;;1282981;23;905;-26
2022/04/08 01:16:19;;;;;;;;;;;;;;;;;;1282991;23;944;-26
2022/04/08 01:16:50;;;;;;;;;;;;;;;;;;1282811;23;943;-26
2022/04/08 01:17:20;;;;;;;;;;;;;;;;;;1282954;23;814;-27
2022/04/08 01:17:50;;;;;;;;;;;;;;;;;;1282558;23;957;-27
2022/04/08 01:18:20;;;;;;;;;;;;;;;;;;1282758;23;1040;-27
2022/04/08 01:18:57;;;;;;;;;;;;;;;;;;1283013;23;778;-26
2022/04/08 01:19:27;;;;;;;;;;;;;;;;;;1282611;23;989;-27
2022/04/08 01:19:58;;;;;;;;;;;;;;;;;;1283122;23;841;-27
2022/04/08 01:20:28;;;;;;;;;;;;;;;;;;1283017;23;908;-27
2022/04/08 01:21:02;;;;;;;;;;;;;;;;;;1282711;23;892;-27
2022/04/08 01:21:38;;;;;;;;;;;;;;;;;;1283147;23;821;-26
2022/04/08 01:22:08;;;;;;;;;;;;;;;;;;1282756;23;963;-27
2022/04/08 01:22:39;;;;;;;;;;;;;;;;;;1282558;23;758;-27
2022/04/08 01:23:09;;;;;;;;;;;;;;;;;;1282361;23;841;-27
2022/04/08 01:23:43;;;;;;;;;;;;;;;;;;1282731;23;880;-26
2022/04/08 01:24:21;;;;;;;;;;;;;;;;;;1282967;23;897;-26
2022/04/08 01:25:04;;;;;;;;;;;;;;;;;;1282874;23;1226;-26
2022/04/08 01:25:34;;;;;;;;;;;;;;;;;;1282363;23;956;-27
2022/04/08 01:26:05;;;;;;;;;;;;;;;;;;1283301;23;778;-27
2022/04/08 01:26:36;;;;;;;;;;;;;;;;;;1282996;23;872;-27
2022/04/08 01:27:14;;;;;;;;;;;;;;;;;;1282693;23;849;-26
2022/04/08 01:27:44;;;;;;;;;;;;;;;;;;1283195;23;1145;-26
2022/04/08 01:28:25;;;;;;;;;;;;;;;;;;1282503;23;959;-27
2022/04/08 01:28:55;;;;;;;;;;;;;;;;;;1282822;23;845;-26
2022/04/08 01:29:26;;;;;;;;;;;;;;;;;;1282960;23;953;-26
2022/04/08 01:29:56;;;;;;;;;;;;;;;;;;1282282;23;968;-27
2022/04/08 01:30:27;;;;;;;;;;;;;;;;;;1282934;23;960;-27
2022/04/08 01:31:04;;;;;;;;;;;;;;;;;;1282763;23;1011;-27
2022/04/08 01:31:44;;;;;;;;;;;;;;;;;;1282516;23;821;-26
2022/04/08 01:32:15;;;;;;;;;;;;;;;;;;1283357;23;1936;-26
2022/04/08 01:32:45;;;;;;;;;;;;;;;;;;1283162;23;1064;-27
2022/04/08 01:33:16;;;;;;;;;;;;;;;;;;1283446;23;797;-27
2022/04/08 01:33:46;;;;;;;;;;;;;;;;;;1283042;23;942;-26
2022/04/08 01:34:23;;;;;;;;;;;;;;;;;;1283155;23;893;-27
2022/04/08 01:34:53;;;;;;;;;;;;;;;;;;1283481;23;942;-26
2022/04/08 01:35:24;;;;;;;;;;;;;;;;;;1283219;23;853;-27
2022/04/08 01:35:54;;;;;;;;;;;;;;;;;;1283371;23;873;-27
2022/04/08 01:36:25;;;;;;;;;;;;;;;;;;1283260;23;1219;-27
2022/04/08 01:37:02;;;;;;;;;;;;;;;;;;1283182;23;937;-27
2022/04/08 01:37:32;;;;;;;;;;;;;;;;;;1282969;23;1009;-27
2022/04/08 01:38:03;;;;;;;;;;;;;;;;;;1282984;23;948;-27
2022/04/08 01:38:33;;;;;;;;;;;;;;;;;;1283668;23;884;-26
2022/04/08 01:39:04;;;;;;;;;;;;;;;;;;1283151;23;943;-27
2022/04/08 01:39:41;;;;;;;;;;;;;;;;;;1283148;23;889;-26
2022/04/08 01:40:12;;;;;;;;;;;;;;;;;;1283400;23;1002;-26
2022/04/08 01:40:49;;;;;;;;;;;;;;;;;;1283126;23;950;-27
2022/04/08 01:41:20;;;;;;;;;;;;;;;;;;1283384;23;896;-26
2022/04/08 01:41:50;;;;;;;;;;;;;;;;;;1282661;23;1023;-27
2022/04/08 01:42:34;;;;;;;;;;;;;;;;;;1282913;23;978;-27
2022/04/08 01:43:11;;;;;;;;;;;;;;;;;;1283532;23;817;-26
2022/04/08 01:43:42;;;;;;;;;;;;;;;;;;1283459;23;1028;-26
2022/04/08 01:44:12;;;;;;;;;;;;;;;;;;1282946;23;975;-27
2022/04/08 01:44:44;;;;;;;;;;;;;;;;;;1282784;23;885;-26
2022/04/08 01:45:21;;;;;;;;;;;;;;;;;;1283294;23;886;-26
2022/04/08 01:45:58;;;;;;;;;;;;;;;;;;1283073;23;913;-27
2022/04/08 01:46:28;;;;;;;;;;;;;;;;;;1283347;23;920;-27
2022/04/08 01:46:59;;;;;;;;;;;;;;;;;;1283169;23;948;-27
2022/04/08 01:47:29;;;;;;;;;;;;;;;;;;1283343;23;861;-26
2022/04/08 01:47:59;;;;;;;;;;;;;;;;;;1283423;23;965;-26
2022/04/08 01:48:36;;;;;;;;;;;;;;;;;;1282991;23;836;-26
2022/04/08 01:49:06;;;;;;;;;;;;;;;;;;1283437;23;1104;-26
2022/04/08 01:49:37;;;;;;;;;;;;;;;;;;1283081;23;925;-27
2022/04/08 01:50:07;;;;;;;;;;;;;;;;;;1282818;23;893;-27
2022/04/08 01:50:37;;;;;;;;;;;;;;;;;;1283328;23;822;-26
2022/04/08 01:51:14;;;;;;;;;;;;;;;;;;1282727;23;932;-30
2022/04/08 01:51:44;;;;;;;;;;;;;;;;;;1283428;23;967;-26
2022/04/08 01:52:15;;;;;;;;;;;;;;;;;;1282468;23;1951;-26
2022/04/08 01:52:45;;;;;;;;;;;;;;;;;;1283437;23;896;-26
2022/04/08 01:53:22;;;;;;;;;;;;;;;;;;1283233;23;936;-27
2022/04/08 01:53:52;;;;;;;;;;;;;;;;;;1276458;23;782;-26
2022/04/08 01:54:23;;;;;;;;;;;;;;;;;;1276799;23;1044;-27
2022/04/08 01:54:53;;;;;;;;;;;;;;;;;;1276328;23;951;-27
2022/04/08 01:55:23;;;;;;;;;;;;;;;;;;1276161;23;841;-26
2022/04/08 01:56:00;;;;;;;;;;;;;;;;;;1283439;23;944;-26
2022/04/08 01:56:30;;;;;;;;;;;;;;;;;;1283218;23;785;-26
2022/04/08 01:57:07;;;;;;;;;;;;;;;;;;1283267;23;1063;-26
2022/04/08 01:57:37;;;;;;;;;;;;;;;;;;1283192;23;901;-26
2022/04/08 01:58:08;;;;;;;;;;;;;;;;;;1283475;23;893;-26
2022/04/08 01:58:39;;;;;;;;;;;;;;;;;;1282979;23;893;-27
2022/04/08 01:59:09;;;;;;;;;;;;;;;;;;1282508;23;944;-26
2022/04/08 01:59:47;;;;;;;;;;;;;;;;;;1282717;23;1151;-26
2022/04/08 02:00:17;;;;;;;;;;;;;;;;;;1283048;23;943;-27
2022/04/08 02:00:47;;;;;;;;;;;;;;;;;;1282879;23;901;-26
2022/04/08 02:01:18;;;;;;;;;;;;;;;;;;1283073;23;920;-26
2022/04/08 02:01:48;;;;;;;;;;;;;;;;;;1283069;23;825;-26
2022/04/08 02:02:25;;;;;;;;;;;;;;;;;;1283174;23;1022;-26
2022/04/08 02:02:55;;;;;;;;;;;;;;;;;;1283126;23;1090;-26
2022/04/08 02:03:26;;;;;;;;;;;;;;;;;;1283175;23;912;-26
2022/04/08 02:03:56;;;;;;;;;;;;;;;;;;1283406;23;1024;-27
2022/04/08 02:04:26;;;;;;;;;;;;;;;;;;1282975;23;854;-26
2022/04/08 02:05:04;;;;;;;;;;;;;;;;;;1283583;23;938;-26
2022/04/08 02:05:35;;;;;;;;;;;;;;;;;;1282954;23;1011;-27
2022/04/08 02:06:05;;;;;;;;;;;;;;;;;;1282930;23;932;-26
2022/04/08 02:06:36;;;;;;;;;;;;;;;;;;1283300;23;921;-27
2022/04/08 02:07:06;;;;;;;;;;;;;;;;;;1282784;23;888;-26
2022/04/08 02:07:43;;;;;;;;;;;;;;;;;;1283325;23;1110;-26
2022/04/08 02:08:13;;;;;;;;;;;;;;;;;;1283005;23;968;-26
2022/04/08 02:08:44;;;;;;;;;;;;;;;;;;1276951;23;917;-26
2022/04/08 02:09:14;;;;;;;;;;;;;;;;;;1276348;23;932;-27
2022/04/08 02:09:44;;;;;;;;;;;;;;;;;;1276659;23;1633;-26
2022/04/08 02:10:23;;;;;;;;;;;;;;;;;;1278185;23;1622;-26
2022/04/08 02:10:54;;;;;;;;;;;;;;;;;;1282937;23;960;-26
2022/04/08 02:11:24;;;;;;;;;;;;;;;;;;1282960;23;869;-26
2022/04/08 02:11:55;;;;;;;;;;;;;;;;;;1282999;23;1950;-27
2022/04/08 02:12:25;;;;;;;;;;;;;;;;;;1283172;23;924;-27
2022/04/08 02:13:02;;;;;;;;;;;;;;;;;;1283564;23;1164;-26
2022/04/08 02:13:33;;;;;;;;;;;;;;;;;;1282793;23;916;-26
2022/04/08 02:14:04;;;;;;;;;;;;;;;;;;1283497;23;849;-26
2022/04/08 02:14:34;;;;;;;;;;;;;;;;;;1282674;23;1053;-26
2022/04/08 02:15:04;;;;;;;;;;;;;;;;;;1282698;23;719;-26
2022/04/08 02:15:41;;;;;;;;;;;;;;;;;;1283020;23;1235;-26
2022/04/08 02:16:12;;;;;;;;;;;;;;;;;;1282555;23;1037;-27
2022/04/08 02:16:42;;;;;;;;;;;;;;;;;;1282822;23;979;-26
2022/04/08 02:17:12;;;;;;;;;;;;;;;;;;1282904;23;932;-26
2022/04/08 02:17:42;;;;;;;;;;;;;;;;;;1283372;23;812;-26
2022/04/08 02:18:19;;;;;;;;;;;;;;;;;;1283400;23;936;-27
2022/04/08 02:18:50;;;;;;;;;;;;;;;;;;1283112;23;876;-26
2022/04/08 02:19:20;;;;;;;;;;;;;;;;;;1283330;23;820;-26
2022/04/08 02:19:52;;;;;;;;;;;;;;;;;;1283052;23;1096;-27
2022/04/08 02:20:22;;;;;;;;;;;;;;;;;;1283248;23;907;-26
2022/04/08 02:21:00;;;;;;;;;;;;;;;;;;1283111;23;963;-26
2022/04/08 02:21:32;;;;;;;;;;;;;;;;;;1282806;23;971;-26
2022/04/08 02:22:03;;;;;;;;;;;;;;;;;;1283002;23;900;-26
2022/04/08 02:22:35;;;;;;;;;;;;;;;;;;1282685;23;1037;-26
2022/04/08 02:23:05;;;;;;;;;;;;;;;;;;1283283;23;888;-26
2022/04/08 02:23:42;;;;;;;;;;;;;;;;;;1283445;23;969;-26
2022/04/08 02:24:13;;;;;;;;;;;;;;;;;;1282879;23;999;-26
2022/04/08 02:24:43;;;;;;;;;;;;;;;;;;1283452;23;770;-26
2022/04/08 02:25:20;;;;;;;;;;;;;;;;;;1283233;23;1102;-27
2022/04/08 02:25:51;;;;;;;;;;;;;;;;;;1283127;23;913;-26
2022/04/08 02:26:21;;;;;;;;;;;;;;;;;;1283323;23;1123;-26
2022/04/08 02:26:58;;;;;;;;;;;;;;;;;;1283114;23;1030;-26
2022/04/08 02:27:29;;;;;;;;;;;;;;;;;;1282869;23;956;-26
2022/04/08 02:28:01;;;;;;;;;;;;;;;;;;1283369;23;1099;-26
2022/04/08 02:28:34;;;;;;;;;;;;;;;;;;1282739;23;980;-26
2022/04/08 02:29:05;;;;;;;;;;;;;;;;;;1282900;23;1062;-26
2022/04/08 02:29:41;;;;;;;;;;;;;;;;;;1283172;23;919;-26
2022/04/08 02:30:14;;;;;;;;;;;;;;;;;;1283106;23;884;-26
2022/04/08 02:30:45;;;;;;;;;;;;;;;;;;1283140;23;1021;-27
2022/04/08 02:31:15;;;;;;;;;;;;;;;;;;1282789;23;832;-26
2022/04/08 02:31:45;;;;;;;;;;;;;;;;;;1283037;23;1196;-26
2022/04/08 02:32:22;;;;;;;;;;;;;;;;;;1283224;23;1993;-26
2022/04/08 02:32:52;;;;;;;;;;;;;;;;;;1282707;23;766;-26
2022/04/08 02:33:23;;;;;;;;;;;;;;;;;;1283283;23;893;-26
2022/04/08 02:33:53;;;;;;;;;;;;;;;;;;1283185;23;884;-26
2022/04/08 02:34:23;;;;;;;;;;;;;;;;;;1283308;23;1013;-26
2022/04/08 02:35:00;;;;;;;;;;;;;;;;;;1283007;23;972;-26
2022/04/08 02:35:31;;;;;;;;;;;;;;;;;;1283156;23;916;-26
2022/04/08 02:36:02;;;;;;;;;;;;;;;;;;1283254;23;1246;-26
2022/04/08 02:36:33;;;;;;;;;;;;;;;;;;1282639;23;908;-26
2022/04/08 02:37:04;;;;;;;;;;;;;;;;;;1283508;23;944;-26
2022/04/08 02:37:41;;;;;;;;;;;;;;;;;;1282965;23;937;-26
2022/04/08 02:38:11;;;;;;;;;;;;;;;;;;1283006;23;817;-26
2022/04/08 02:38:48;;;;;;;;;;;;;;;;;;1283231;23;962;-26
2022/04/08 02:39:19;;;;;;;;;;;;;;;;;;1276223;23;1209;-26
2022/04/08 02:39:49;;;;;;;;;;;;;;;;;;1276630;23;900;-26
2022/04/08 02:40:19;;;;;;;;;;;;;;;;;;1276530;23;868;-25
2022/04/08 02:40:50;;;;;;;;;;;;;;;;;;1276509;23;845;-26
2022/04/08 02:41:29;;;;;;;;;;;;;;;;;;1283116;23;1129;-26
2022/04/08 02:42:13;;;;;;;;;;;;;;;;;;1282554;23;1112;-26
2022/04/08 02:42:50;;;;;;;;;;;;;;;;;;1283143;23;841;-26
2022/04/08 02:43:20;;;;;;;;;;;;;;;;;;1283046;23;1260;-26
2022/04/08 02:43:51;;;;;;;;;;;;;;;;;;1281726;23;928;-26
2022/04/08 02:44:22;;;;;;;;;;;;;;;;;;1283488;23;833;-26
2022/04/08 02:44:58;;;;;;;;;;;;;;;;;;1283337;23;893;-27
2022/04/08 02:45:28;;;;;;;;;;;;;;;;;;1282849;23;1638;-26
2022/04/08 02:45:59;;;;;;;;;;;;;;;;;;1283503;23;989;-26
2022/04/08 02:46:29;;;;;;;;;;;;;;;;;;1282717;23;845;-26
2022/04/08 02:46:59;;;;;;;;;;;;;;;;;;1283469;23;853;-26
2022/04/08 02:47:40;;;;;;;;;;;;;;;;;;1283190;23;970;-26
2022/04/08 02:48:13;;;;;;;;;;;;;;;;;;1282921;23;932;-26
2022/04/08 02:48:44;;;;;;;;;;;;;;;;;;1283517;23;940;-26
2022/04/08 02:49:14;;;;;;;;;;;;;;;;;;1282279;23;810;-26
2022/04/08 02:49:45;;;;;;;;;;;;;;;;;;1283046;23;903;-26
2022/04/08 02:50:22;;;;;;;;;;;;;;;;;;1283326;23;993;-26
2022/04/08 02:50:52;;;;;;;;;;;;;;;;;;1282716;23;925;-26
2022/04/08 02:51:23;;;;;;;;;;;;;;;;;;1283023;23;837;-26
2022/04/08 02:51:53;;;;;;;;;;;;;;;;;;1283016;23;1431;-26
2022/04/08 02:52:24;;;;;;;;;;;;;;;;;;1283134;23;1896;-26
2022/04/08 02:53:00;;;;;;;;;;;;;;;;;;1283431;23;889;-26
2022/04/08 02:53:31;;;;;;;;;;;;;;;;;;1282962;23;1003;-26
2022/04/08 02:54:01;;;;;;;;;;;;;;;;;;1283139;23;936;-26
2022/04/08 02:54:31;;;;;;;;;;;;;;;;;;1282429;23;912;-26
2022/04/08 02:55:02;;;;;;;;;;;;;;;;;;1283384;23;840;-26
2022/04/08 02:55:39;;;;;;;;;;;;;;;;;;1283147;23;913;-26
2022/04/08 02:56:09;;;;;;;;;;;;;;;;;;1282926;23;936;-26
2022/04/08 02:56:41;;;;;;;;;;;;;;;;;;1283433;23;923;-25
2022/04/08 02:57:11;;;;;;;;;;;;;;;;;;1283027;23;940;-26
2022/04/08 02:57:46;;;;;;;;;;;;;;;;;;1283281;23;881;-26
2022/04/08 02:58:22;;;;;;;;;;;;;;;;;;1283251;23;989;-26
2022/04/08 02:58:52;;;;;;;;;;;;;;;;;;1282411;23;904;-26
2022/04/08 02:59:23;;;;;;;;;;;;;;;;;;1283445;23;818;-26
2022/04/08 02:59:53;;;;;;;;;;;;;;;;;;1282210;23;976;-26
2022/04/08 03:00:23;;;;;;;;;;;;;;;;;;1283321;23;865;-27
2022/04/08 03:01:00;;;;;;;;;;;;;;;;;;1283181;23;947;-26
2022/04/08 03:01:30;;;;;;;;;;;;;;;;;;1282620;23;911;-26
2022/04/08 03:02:01;;;;;;;;;;;;;;;;;;1276552;23;1346;-26
2022/04/08 03:02:31;;;;;;;;;;;;;;;;;;1276367;23;986;-25
2022/04/08 03:03:01;;;;;;;;;;;;;;;;;;1276466;23;1355;-26
2022/04/08 03:03:38;;;;;;;;;;;;;;;;;;1277975;23;985;-26
2022/04/08 03:04:15;;;;;;;;;;;;;;;;;;1282801;23;945;-26
2022/04/08 03:04:45;;;;;;;;;;;;;;;;;;1283037;23;885;-26
2022/04/08 03:05:16;;;;;;;;;;;;;;;;;;1282721;23;1575;-26
2022/04/08 03:05:46;;;;;;;;;;;;;;;;;;1282908;23;955;-26
2022/04/08 03:06:16;;;;;;;;;;;;;;;;;;1282807;23;841;-26
2022/04/08 03:06:54;;;;;;;;;;;;;;;;;;1282780;23;1139;-26
2022/04/08 03:07:25;;;;;;;;;;;;;;;;;;1283121;23;824;-26
2022/04/08 03:07:55;;;;;;;;;;;;;;;;;;1283068;23;868;-27
2022/04/08 03:08:26;;;;;;;;;;;;;;;;;;1282909;23;909;-26
2022/04/08 03:08:56;;;;;;;;;;;;;;;;;;1283108;23;1054;-26
2022/04/08 03:09:33;;;;;;;;;;;;;;;;;;1282803;23;952;-26
2022/04/08 03:10:04;;;;;;;;;;;;;;;;;;1283349;23;813;-26
2022/04/08 03:10:34;;;;;;;;;;;;;;;;;;1282486;23;1105;-26
2022/04/08 03:11:05;;;;;;;;;;;;;;;;;;1282972;23;905;-26
2022/04/08 03:11:35;;;;;;;;;;;;;;;;;;1282796;23;974;-26
2022/04/08 03:12:12;;;;;;;;;;;;;;;;;;1282758;23;1942;-26
2022/04/08 03:12:42;;;;;;;;;;;;;;;;;;1283308;23;865;-26
2022/04/08 03:13:13;;;;;;;;;;;;;;;;;;1282882;23;980;-26
2022/04/08 03:13:43;;;;;;;;;;;;;;;;;;1282602;23;813;-26
2022/04/08 03:14:14;;;;;;;;;;;;;;;;;;1283242;23;1702;-26
2022/04/08 03:14:50;;;;;;;;;;;;;;;;;;1282610;23;909;-26
2022/04/08 03:15:20;;;;;;;;;;;;;;;;;;1283445;23;830;-26
2022/04/08 03:15:51;;;;;;;;;;;;;;;;;;1282532;23;1028;-26
2022/04/08 03:16:21;;;;;;;;;;;;;;;;;;1283323;23;888;-26
2022/04/08 03:16:51;;;;;;;;;;;;;;;;;;1282928;23;1006;-26
2022/04/08 03:17:28;;;;;;;;;;;;;;;;;;1282787;23;925;-26
2022/04/08 03:17:58;;;;;;;;;;;;;;;;;;1283337;23;932;-26
2022/04/08 03:18:29;;;;;;;;;;;;;;;;;;1282535;23;921;-26
2022/04/08 03:18:59;;;;;;;;;;;;;;;;;;1283293;23;782;-26
2022/04/08 03:19:36;;;;;;;;;;;;;;;;;;1283094;23;961;-26
2022/04/08 03:20:06;;;;;;;;;;;;;;;;;;1282740;23;664;-26
2022/04/08 03:20:37;;;;;;;;;;;;;;;;;;1283315;23;1608;-26
2022/04/08 03:21:07;;;;;;;;;;;;;;;;;;1282045;23;1085;-26
2022/04/08 03:21:37;;;;;;;;;;;;;;;;;;1283039;23;825;-26
2022/04/08 03:22:14;;;;;;;;;;;;;;;;;;1283122;23;1047;-26
2022/04/08 03:22:44;;;;;;;;;;;;;;;;;;1282802;23;837;-25
2022/04/08 03:23:15;;;;;;;;;;;;;;;;;;1283312;23;1058;-26
2022/04/08 03:23:45;;;;;;;;;;;;;;;;;;1282649;23;1022;-26
2022/04/08 03:24:16;;;;;;;;;;;;;;;;;;1283398;23;861;-26
2022/04/08 03:24:54;;;;;;;;;;;;;;;;;;1283065;23;977;-26
2022/04/08 03:25:24;;;;;;;;;;;;;;;;;;1282669;23;873;-26
2022/04/08 03:25:54;;;;;;;;;;;;;;;;;;1283272;23;1008;-26
2022/04/08 03:26:25;;;;;;;;;;;;;;;;;;1282811;23;930;-26
2022/04/08 03:26:56;;;;;;;;;;;;;;;;;;1282660;23;909;-26
2022/04/08 03:27:32;;;;;;;;;;;;;;;;;;1282695;23;1018;-26
2022/04/08 03:28:02;;;;;;;;;;;;;;;;;;1283117;23;887;-25
2022/04/08 03:28:33;;;;;;;;;;;;;;;;;;1282531;23;1123;-26
2022/04/08 03:29:03;;;;;;;;;;;;;;;;;;1282916;23;1037;-26
2022/04/08 03:29:40;;;;;;;;;;;;;;;;;;1283187;23;821;-26
2022/04/08 03:30:11;;;;;;;;;;;;;;;;;;1283021;23;908;-26
2022/04/08 03:30:41;;;;;;;;;;;;;;;;;;1282983;23;913;-26
2022/04/08 03:31:18;;;;;;;;;;;;;;;;;;1283269;23;1042;-26
2022/04/08 03:31:49;;;;;;;;;;;;;;;;;;1282335;23;1036;-25
2022/04/08 03:32:19;;;;;;;;;;;;;;;;;;1282922;23;1929;-26
2022/04/08 03:32:49;;;;;;;;;;;;;;;;;;1283085;23;1039;-25
2022/04/08 03:33:19;;;;;;;;;;;;;;;;;;1283051;23;973;-26
2022/04/08 03:33:56;;;;;;;;;;;;;;;;;;1283029;23;923;-26
2022/04/08 03:34:26;;;;;;;;;;;;;;;;;;1282396;23;920;-26
2022/04/08 03:34:59;;;;;;;;;;;;;;;;;;1283371;23;873;-26
2022/04/08 03:35:30;;;;;;;;;;;;;;;;;;1282503;23;1271;-26
2022/04/08 03:36:07;;;;;;;;;;;;;;;;;;1282598;23;936;-25
2022/04/08 03:36:37;;;;;;;;;;;;;;;;;;1283386;23;1292;-26
2022/04/08 03:37:08;;;;;;;;;;;;;;;;;;1282780;23;890;-26
2022/04/08 03:37:38;;;;;;;;;;;;;;;;;;1282793;23;791;-26
2022/04/08 03:38:09;;;;;;;;;;;;;;;;;;1282918;23;948;-26
2022/04/08 03:38:46;;;;;;;;;;;;;;;;;;1282853;23;817;-26
2022/04/08 03:39:17;;;;;;;;;;;;;;;;;;1283175;23;967;-26
2022/04/08 03:39:48;;;;;;;;;;;;;;;;;;1282721;23;1099;-26
2022/04/08 03:40:19;;;;;;;;;;;;;;;;;;1283271;23;833;-26
2022/04/08 03:40:49;;;;;;;;;;;;;;;;;;1282758;23;1012;-26
2022/04/08 03:41:26;;;;;;;;;;;;;;;;;;1282785;23;801;-26
2022/04/08 03:42:03;;;;;;;;;;;;;;;;;;1282692;23;1152;-26
2022/04/08 03:42:40;;;;;;;;;;;;;;;;;;1282722;23;917;-26
2022/04/08 03:43:18;;;;;;;;;;;;;;;;;;1282402;23;1031;-26
2022/04/08 03:43:48;;;;;;;;;;;;;;;;;;1283300;23;841;-26
2022/04/08 03:44:19;;;;;;;;;;;;;;;;;;1282841;23;993;-26
2022/04/08 03:44:51;;;;;;;;;;;;;;;;;;1276116;23;1229;-26
2022/04/08 03:45:21;;;;;;;;;;;;;;;;;;1276631;23;999;-26
2022/04/08 03:45:58;;;;;;;;;;;;;;;;;;1276191;23;1079;-26
2022/04/08 03:46:28;;;;;;;;;;;;;;;;;;1278235;23;904;-26
2022/04/08 03:46:58;;;;;;;;;;;;;;;;;;1282806;23;1176;-26